Time;durP1;ratioP1;P1;durP2;ratioP2;P2;SDS_P1;SDS_P2;PMS_P1;PMS_P2;Temp;Humidity;BMP_temperature;BMP_pressure;BME280_temperature;BME280_humidity;BME280_pressure;Samples;Min_cycle;Max_cycle;Signal;HPM_P1;HPM_P2
2020/12/23 00:04:49;;;;;;;2.60;1.02;;;14.10;87.60;;;;;;10043925;28;20029;-66
2020/12/23 00:09:39;;;;;;;1.85;1.20;;;14.10;87.60;;;;;;10042782;28;20091;-67
2020/12/23 00:14:30;;;;;;;2.55;1.02;;;14.10;87.60;;;;;;10045286;28;20060;-67
2020/12/23 00:19:21;;;;;;;1.42;0.98;;;14.10;87.60;;;;;;10037275;28;20054;-67
2020/12/23 00:24:11;;;;;;;1.33;0.80;;;14.10;87.40;;;;;;10036810;28;20433;-65
2020/12/23 00:29:02;;;;;;;1.67;1.30;;;14.10;87.50;;;;;;10038322;28;20068;-65
2020/12/23 00:33:54;;;;;;;1.25;1.00;;;14.20;87.30;;;;;;10041017;28;20503;-65
2020/12/23 00:38:45;;;;;;;1.83;1.10;;;14.20;87.10;;;;;;10039311;28;20169;-65
2020/12/23 00:43:35;;;;;;;1.63;1.00;;;14.20;86.90;;;;;;10034785;28;20041;-65
2020/12/23 00:48:26;;;;;;;1.58;0.80;;;14.30;86.80;;;;;;10037946;28;20036;-65
2020/12/23 00:53:16;;;;;;;0.93;0.60;;;14.30;86.60;;;;;;10040020;28;20576;-64
2020/12/23 00:58:07;;;;;;;0.55;0.55;;;14.30;86.50;;;;;;10039883;28;20037;-65
2020/12/23 01:02:58;;;;;;;1.05;0.85;;;14.30;86.30;;;;;;10038916;28;20049;-65
2020/12/23 01:07:48;;;;;;;0.90;0.60;;;14.30;86.40;;;;;;10036167;28;20518;-65
2020/12/23 01:12:39;;;;;;;1.63;0.90;;;14.30;86.20;;;;;;10047521;28;20030;-64
2020/12/23 01:17:29;;;;;;;1.25;0.75;;;14.20;86.20;;;;;;10048322;28;20064;-67
2020/12/23 01:22:20;;;;;;;1.10;0.57;;;14.20;86.30;;;;;;10050356;28;20068;-66
2020/12/23 01:27:10;;;;;;;2.00;0.90;;;14.20;86.20;;;;;;10044373;28;20038;-67
2020/12/23 01:32:01;;;;;;;1.27;0.40;;;14.20;85.90;;;;;;10048390;28;20021;-66
2020/12/23 01:36:51;;;;;;;0.93;0.70;;;14.20;85.90;;;;;;10041010;28;20038;-67
2020/12/23 01:41:42;;;;;;;4.50;0.93;;;14.20;85.80;;;;;;10048780;28;20034;-66
2020/12/23 01:46:36;;;;;;;1.20;0.98;;;14.30;85.70;;;;;;10045908;28;20408;-67
2020/12/23 01:51:28;;;;;;;0.70;0.65;;;14.30;85.50;;;;;;10043151;28;20025;-67
2020/12/23 01:56:21;;;;;;;1.15;0.65;;;14.30;85.50;;;;;;10048344;28;20033;-66
2020/12/23 02:01:18;;;;;;;1.17;0.82;;;14.20;85.50;;;;;;10047837;28;20032;-66
2020/12/23 02:06:09;;;;;;;0.77;0.68;;;14.30;85.40;;;;;;10051110;28;20037;-67
2020/12/23 02:11:00;;;;;;;0.80;0.50;;;14.20;85.30;;;;;;10044892;28;20071;-66
2020/12/23 02:15:50;;;;;;;1.88;0.90;;;14.30;85.20;;;;;;10045747;28;20037;-66
2020/12/23 02:20:41;;;;;;;1.48;0.60;;;14.30;85.20;;;;;;10044969;28;20058;-66
2020/12/23 02:25:31;;;;;;;1.92;1.17;;;14.20;85.10;;;;;;10042824;28;20293;-66
2020/12/23 02:30:22;;;;;;;1.33;1.13;;;14.20;85.10;;;;;;10044983;28;20021;-67
2020/12/23 02:35:13;;;;;;;0.85;0.77;;;14.20;85.10;;;;;;10041198;28;20036;-67
2020/12/23 02:40:05;;;;;;;0.95;0.73;;;14.20;85.00;;;;;;10045450;28;20112;-64
2020/12/23 02:44:56;;;;;;;1.30;0.70;;;14.20;84.90;;;;;;10043181;28;20120;-63
2020/12/23 02:49:47;;;;;;;2.10;0.70;;;14.20;84.80;;;;;;10044984;28;20040;-63
2020/12/23 02:54:38;;;;;;;1.10;0.50;;;14.20;84.70;;;;;;10044612;28;20026;-66
2020/12/23 02:59:29;;;;;;;0.80;0.73;;;14.20;84.60;;;;;;10039905;28;20068;-65
2020/12/23 03:04:19;;;;;;;1.92;0.52;;;14.20;84.40;;;;;;10043647;28;20068;-66
2020/12/23 03:09:11;;;;;;;1.08;0.50;;;14.30;84.30;;;;;;10039646;28;20045;-64
2020/12/23 03:14:03;;;;;;;1.80;0.68;;;14.30;84.20;;;;;;10044390;28;20029;-64
2020/12/23 03:18:54;;;;;;;1.13;0.57;;;14.30;84.00;;;;;;10044628;28;20569;-65
2020/12/23 03:23:45;;;;;;;0.80;0.50;;;14.30;84.00;;;;;;10037930;28;20034;-65
2020/12/23 03:28:35;;;;;;;0.98;0.77;;;14.20;83.90;;;;;;10043692;28;20041;-65
2020/12/23 03:33:26;;;;;;;1.27;0.65;;;14.20;83.90;;;;;;10037493;28;20029;-63
2020/12/23 03:38:17;;;;;;;1.65;0.80;;;14.20;83.70;;;;;;10042223;28;20045;-64
2020/12/23 03:43:07;;;;;;;2.47;0.60;;;14.20;83.80;;;;;;10037117;28;20037;-64
2020/12/23 03:47:58;;;;;;;1.58;0.82;;;14.20;83.60;;;;;;10037879;28;20065;-64
2020/12/23 03:52:49;;;;;;;0.75;0.65;;;14.20;83.40;;;;;;10038191;28;20117;-64
2020/12/23 03:57:39;;;;;;;2.00;0.80;;;14.20;83.30;;;;;;10037624;28;20398;-64
2020/12/23 04:02:30;;;;;;;0.98;0.85;;;14.20;83.30;;;;;;10037586;28;20276;-63
2020/12/23 04:07:20;;;;;;;1.15;0.52;;;14.20;83.90;;;;;;10039714;28;20033;-64
2020/12/23 04:12:11;;;;;;;1.73;0.90;;;14.20;83.00;;;;;;10039828;28;20677;-64
2020/12/23 04:17:01;;;;;;;1.13;0.88;;;14.20;82.90;;;;;;10036743;28;20057;-65
2020/12/23 04:21:52;;;;;;;0.85;0.85;;;14.20;82.90;;;;;;10041331;28;20392;-65
2020/12/23 04:26:42;;;;;;;1.23;0.82;;;14.20;82.70;;;;;;10040217;28;20521;-64
2020/12/23 04:31:33;;;;;;;1.17;0.57;;;14.20;82.50;;;;;;10036939;28;20032;-64
2020/12/23 04:36:24;;;;;;;1.25;1.05;;;14.30;82.40;;;;;;10038878;28;20041;-64
2020/12/23 04:41:14;;;;;;;1.38;0.80;;;14.30;82.20;;;;;;10039827;28;20041;-64
2020/12/23 04:46:08;;;;;;;1.63;0.52;;;14.30;82.20;;;;;;10041417;28;20048;-64
2020/12/23 04:51:03;;;;;;;1.98;1.33;;;14.30;82.10;;;;;;10045373;28;20031;-65
2020/12/23 04:55:54;;;;;;;1.47;0.53;;;14.30;82.00;;;;;;10044326;28;20040;-63
2020/12/23 05:00:45;;;;;;;1.88;0.82;;;14.20;81.80;;;;;;10042818;28;20033;-63
2020/12/23 05:05:35;;;;;;;1.50;0.65;;;14.20;81.90;;;;;;10044198;28;20037;-63
2020/12/23 05:10:29;;;;;;;1.77;0.80;;;14.20;81.80;;;;;;10046943;28;20034;-63
2020/12/23 05:15:20;;;;;;;1.00;0.85;;;14.10;81.80;;;;;;10046538;28;20410;-64
2020/12/23 05:20:11;;;;;;;1.38;0.90;;;14.10;81.90;;;;;;10044956;28;20100;-64
2020/12/23 05:25:02;;;;;;;1.10;0.60;;;14.10;81.80;;;;;;10044870;28;20076;-64
2020/12/23 05:29:53;;;;;;;0.68;0.50;;;14.10;81.90;;;;;;10043200;28;20044;-66
2020/12/23 05:34:47;;;;;;;1.55;0.63;;;14.00;81.80;;;;;;10042688;28;20036;-64
2020/12/23 05:39:38;;;;;;;1.05;0.70;;;14.10;81.80;;;;;;10043968;28;20518;-63
2020/12/23 05:44:29;;;;;;;0.90;0.75;;;14.10;81.90;;;;;;10042446;28;20526;-64
2020/12/23 05:49:22;;;;;;;0.82;0.60;;;14.00;82.00;;;;;;10047526;28;20041;-64
2020/12/23 05:54:13;;;;;;;2.15;0.85;;;14.00;81.80;;;;;;10039017;28;20029;-64
2020/12/23 05:59:04;;;;;;;1.67;0.75;;;14.00;81.90;;;;;;10046490;28;20034;-64
2020/12/23 06:03:57;;;;;;;1.17;0.70;;;14.00;81.90;;;;;;10040244;28;20529;-67
2020/12/23 06:08:54;;;;;;;1.60;1.00;;;14.00;81.80;;;;;;10044528;28;20403;-67
2020/12/23 06:14:02;;;;;;;1.73;0.93;;;13.90;81.80;;;;;;10039558;28;20025;-67
2020/12/23 06:18:54;;;;;;;3.45;1.48;;;13.90;81.90;;;;;;10044960;28;20626;-67
2020/12/23 06:23:45;;;;;;;0.95;0.80;;;13.90;81.90;;;;;;10045643;28;20052;-67
2020/12/23 06:28:39;;;;;;;2.60;1.38;;;13.90;81.80;;;;;;10042205;28;20034;-67
2020/12/23 06:33:29;;;;;;;1.90;0.70;;;13.90;81.80;;;;;;10038912;28;20057;-67
2020/12/23 06:38:21;;;;;;;1.25;0.80;;;13.90;81.80;;;;;;10040586;28;20518;-67
2020/12/23 06:43:12;;;;;;;0.70;0.68;;;13.90;81.80;;;;;;10042592;28;20041;-67
2020/12/23 06:48:16;;;;;;;2.30;0.70;;;13.90;81.60;;;;;;10038645;28;20498;-67
2020/12/23 06:53:07;;;;;;;1.38;0.82;;;13.90;81.40;;;;;;10038992;28;20038;-67
2020/12/23 06:57:58;;;;;;;2.97;0.90;;;13.90;81.50;;;;;;10040151;28;20029;-66
2020/12/23 07:02:50;;;;;;;1.02;0.85;;;13.90;81.30;;;;;;10038467;28;20063;-68
2020/12/23 07:07:42;;;;;;;1.20;0.80;;;14.00;81.20;;;;;;10034929;28;20478;-66
2020/12/23 07:12:35;;;;;;;1.77;1.13;;;14.00;81.20;;;;;;10037732;28;20025;-66
2020/12/23 07:17:27;;;;;;;0.88;0.65;;;14.00;81.10;;;;;;10037632;28;20042;-66
2020/12/23 07:22:17;;;;;;;1.45;0.70;;;14.00;80.80;;;;;;10037673;28;20375;-66
2020/12/23 07:27:10;;;;;;;1.05;0.75;;;14.00;80.80;;;;;;10035790;28;20060;-66
2020/12/23 07:32:03;;;;;;;1.35;0.75;;;14.10;81.30;;;;;;10036234;28;20541;-66
2020/12/23 07:36:57;;;;;;;1.02;0.63;;;14.10;80.50;;;;;;10039969;28;20029;-66
2020/12/23 07:41:54;;;;;;;1.15;0.65;;;14.20;80.30;;;;;;10038556;28;21191;-64
2020/12/23 07:46:45;;;;;;;1.02;0.60;;;14.20;80.10;;;;;;10040147;28;20033;-66
2020/12/23 07:51:38;;;;;;;0.90;0.68;;;14.30;80.00;;;;;;10039440;28;20434;-67
2020/12/23 07:56:28;;;;;;;1.05;0.63;;;14.30;79.90;;;;;;10040517;28;20045;-69
2020/12/23 08:01:19;;;;;;;1.77;0.80;;;14.40;79.60;;;;;;10039807;28;20026;-66
2020/12/23 08:06:11;;;;;;;2.42;1.30;;;14.40;79.40;;;;;;10038982;28;20140;-65
2020/12/23 08:11:09;;;;;;;0.95;0.82;;;14.50;79.20;;;;;;10030512;28;20460;-64
2020/12/23 08:16:02;;;;;;;0.68;0.55;;;14.50;79.00;;;;;;10037323;28;20103;-65
2020/12/23 08:20:53;;;;;;;1.30;0.70;;;14.50;78.90;;;;;;10038723;28;20548;-65
2020/12/23 08:25:44;;;;;;;0.60;0.50;;;14.60;78.90;;;;;;9992739;28;20087;-64
2020/12/23 08:30:35;;;;;;;1.35;0.68;;;14.60;78.70;;;;;;10041531;28;20029;-66
2020/12/23 08:35:36;;;;;;;1.83;0.65;;;14.60;78.70;;;;;;10037881;28;20029;-66
2020/12/23 08:40:27;;;;;;;1.92;0.73;;;14.60;78.40;;;;;;10032604;28;20041;-65
2020/12/23 08:45:25;;;;;;;0.93;0.52;;;14.60;78.60;;;;;;10037070;28;20798;-66
2020/12/23 08:50:19;;;;;;;0.45;0.45;;;14.60;78.30;;;;;;10036690;28;20045;-68
2020/12/23 08:55:20;;;;;;;0.70;0.55;;;14.60;78.10;;;;;;10035971;28;20029;-66
2020/12/23 09:00:19;;;;;;;1.00;0.77;;;14.60;77.90;;;;;;10037143;28;20045;-67
2020/12/23 09:05:24;;;;;;;1.95;0.73;;;14.70;77.90;;;;;;10039899;28;20034;-66
2020/12/23 09:10:15;;;;;;;1.33;0.98;;;14.70;77.70;;;;;;10039749;28;20132;-65
2020/12/23 09:15:13;;;;;;;1.75;0.90;;;14.70;77.70;;;;;;10036407;28;20029;-64
2020/12/23 09:20:04;;;;;;;1.50;0.80;;;14.70;77.70;;;;;;10036137;28;20511;-66
2020/12/23 09:25:21;;;;;;;2.30;1.33;;;14.70;77.80;;;;;;10035369;28;20025;-64
2020/12/23 09:30:12;;;;;;;1.05;0.75;;;14.70;77.50;;;;;;10037526;28;20152;-64
2020/12/23 09:35:17;;;;;;;1.10;0.77;;;14.70;77.40;;;;;;10048463;28;20491;-64
2020/12/23 09:40:07;;;;;;;3.25;0.88;;;14.80;77.40;;;;;;10044290;28;20033;-64
2020/12/23 09:44:58;;;;;;;3.08;1.48;;;14.80;77.30;;;;;;10042227;28;20037;-64
2020/12/23 09:49:48;;;;;;;1.65;1.00;;;14.80;77.20;;;;;;10042683;28;20033;-65
2020/12/23 09:54:39;;;;;;;1.88;0.85;;;14.70;77.20;;;;;;10043825;28;20483;-64
2020/12/23 09:59:29;;;;;;;2.13;1.10;;;14.70;77.10;;;;;;10042697;28;20451;-64
2020/12/23 10:04:20;;;;;;;1.50;0.75;;;14.80;77.10;;;;;;10046835;28;20037;-65
2020/12/23 10:09:11;;;;;;;1.20;0.60;;;14.80;77.00;;;;;;10044239;28;20036;-64
2020/12/23 10:14:01;;;;;;;2.38;0.80;;;14.80;76.90;;;;;;10042447;28;20037;-65
2020/12/23 10:18:52;;;;;;;2.17;1.00;;;14.80;76.70;;;;;;10039686;28;20064;-65
2020/12/23 10:23:42;;;;;;;1.55;0.90;;;14.80;76.50;;;;;;10041825;28;20475;-66
2020/12/23 10:28:33;;;;;;;1.67;0.70;;;14.80;76.40;;;;;;10036486;28;20036;-64
2020/12/23 10:33:23;;;;;;;2.88;0.80;;;14.80;76.20;;;;;;10036740;28;20064;-66
2020/12/23 10:38:14;;;;;;;1.73;0.70;;;14.80;76.20;;;;;;10039943;28;20034;-65
2020/12/23 10:43:04;;;;;;;1.40;1.10;;;14.90;76.10;;;;;;10037066;28;20025;-65
2020/12/23 10:47:55;;;;;;;1.13;0.75;;;14.90;76.10;;;;;;10042109;28;20029;-63
2020/12/23 10:52:46;;;;;;;2.60;1.63;;;14.80;76.00;;;;;;10040985;28;20025;-66
2020/12/23 10:57:38;;;;;;;1.95;0.90;;;14.80;75.90;;;;;;10039502;28;20045;-66
2020/12/23 11:02:28;;;;;;;2.03;0.80;;;14.80;75.70;;;;;;10042539;28;20076;-65
2020/12/23 11:07:20;;;;;;;2.35;1.10;;;14.90;75.70;;;;;;10043279;28;20064;-67
2020/12/23 11:12:11;;;;;;;1.83;0.82;;;14.90;75.50;;;;;;10044124;28;21403;-65
2020/12/23 11:17:01;;;;;;;1.85;0.70;;;15.00;75.50;;;;;;10038225;28;20088;-65
2020/12/23 11:21:53;;;;;;;2.70;1.20;;;15.00;75.50;;;;;;10041388;28;20111;-65
2020/12/23 11:26:43;;;;;;;4.65;1.33;;;14.90;75.40;;;;;;10036034;28;20130;-67
2020/12/23 11:31:34;;;;;;;3.45;1.15;;;15.00;75.30;;;;;;10041400;28;20600;-69
2020/12/23 11:36:25;;;;;;;2.63;1.27;;;15.10;75.20;;;;;;10034796;28;20038;-68
2020/12/23 11:41:16;;;;;;;2.25;1.00;;;15.10;74.90;;;;;;10041078;28;20072;-66
2020/12/23 11:46:07;;;;;;;1.85;1.00;;;15.10;75.10;;;;;;10038125;28;20037;-67
2020/12/23 11:50:58;;;;;;;2.25;1.08;;;15.10;75.10;;;;;;10038068;28;20026;-66
2020/12/23 11:55:49;;;;;;;2.70;1.23;;;15.10;75.10;;;;;;10036431;28;20495;-67
2020/12/23 12:00:40;;;;;;;3.10;1.35;;;15.10;75.20;;;;;;10034371;28;20419;-67
2020/12/23 12:05:30;;;;;;;1.92;1.33;;;15.00;75.20;;;;;;10038691;28;20056;-66
2020/12/23 12:10:21;;;;;;;3.55;1.65;;;15.00;75.20;;;;;;10034266;28;20026;-67
2020/12/23 12:15:11;;;;;;;2.47;1.48;;;15.00;75.30;;;;;;10041852;28;20512;-63
2020/12/23 12:20:02;;;;;;;5.72;1.90;;;14.90;75.30;;;;;;10033729;28;20046;-63
2020/12/23 12:24:53;;;;;;;2.38;1.67;;;14.90;75.30;;;;;;10040336;28;20719;-64
2020/12/23 12:29:44;;;;;;;9.85;1.73;;;14.90;75.30;;;;;;10036932;28;20097;-63
2020/12/23 12:34:34;;;;;;;2.63;1.45;;;14.90;75.30;;;;;;10035291;28;20379;-65
2020/12/23 12:39:26;;;;;;;3.10;1.55;;;14.90;75.40;;;;;;10041117;28;20036;-65
2020/12/23 12:44:17;;;;;;;2.50;1.65;;;14.90;75.40;;;;;;10037351;28;20088;-64
2020/12/23 12:49:08;;;;;;;2.60;1.13;;;14.90;75.40;;;;;;10040798;28;20503;-66
2020/12/23 12:53:59;;;;;;;2.33;1.65;;;14.90;75.60;;;;;;10040864;28;20025;-64
2020/12/23 12:58:49;;;;;;;3.17;1.58;;;14.90;75.50;;;;;;10037165;28;20022;-67
2020/12/23 13:03:40;;;;;;;5.18;1.45;;;14.90;75.50;;;;;;10033331;28;20053;-64
2020/12/23 13:08:30;;;;;;;2.70;2.10;;;14.90;75.40;;;;;;10037038;28;20029;-63
2020/12/23 13:13:21;;;;;;;3.67;1.73;;;14.90;75.50;;;;;;10044160;28;20408;-65
2020/12/23 13:18:13;;;;;;;1.88;1.25;;;14.90;75.60;;;;;;10041777;28;20052;-64
2020/12/23 13:23:05;;;;;;;2.45;1.02;;;14.90;75.40;;;;;;10045939;28;20053;-64
2020/12/23 13:27:55;;;;;;;1.20;0.90;;;15.00;75.40;;;;;;10042224;28;20026;-64
2020/12/23 13:32:46;;;;;;;1.65;0.90;;;15.00;75.30;;;;;;10045937;28;20056;-64
2020/12/23 13:37:36;;;;;;;0.93;0.70;;;15.00;75.20;;;;;;10044880;28;20034;-64
2020/12/23 13:42:27;;;;;;;1.20;0.73;;;15.00;75.10;;;;;;10047293;28;20034;-64
2020/12/23 13:47:17;;;;;;;1.13;0.77;;;15.00;75.00;;;;;;10044333;28;20572;-64
2020/12/23 13:52:10;;;;;;;1.42;1.00;;;15.00;75.00;;;;;;10039611;28;20033;-63
2020/12/23 13:57:01;;;;;;;2.58;1.00;;;15.00;75.00;;;;;;10039719;28;20052;-64
2020/12/23 14:01:52;;;;;;;2.08;1.33;;;15.00;75.10;;;;;;10042041;28;20444;-63
2020/12/23 14:06:42;;;;;;;1.75;1.00;;;15.00;75.20;;;;;;10046418;28;20033;-63
2020/12/23 14:11:33;;;;;;;3.15;1.13;;;15.00;75.20;;;;;;10042509;28;20061;-64
2020/12/23 14:16:24;;;;;;;1.65;0.98;;;15.00;75.30;;;;;;10043797;28;20056;-67
2020/12/23 14:21:15;;;;;;;2.50;0.90;;;15.00;75.40;;;;;;10042903;28;20042;-63
2020/12/23 14:26:05;;;;;;;1.73;0.80;;;15.00;75.40;;;;;;10040964;28;20035;-64
2020/12/23 14:30:56;;;;;;;2.22;1.23;;;15.00;75.40;;;;;;10039492;28;20044;-65
2020/12/23 14:35:48;;;;;;;1.55;1.20;;;15.00;75.50;;;;;;10041154;28;20037;-65
2020/12/23 14:40:38;;;;;;;2.92;0.90;;;15.00;75.70;;;;;;10042109;28;20034;-67
2020/12/23 14:45:29;;;;;;;1.33;1.00;;;14.90;75.80;;;;;;10039819;28;20034;-65
2020/12/23 14:50:19;;;;;;;1.60;1.20;;;15.00;75.80;;;;;;10044019;28;20033;-64
2020/12/23 14:55:10;;;;;;;1.42;0.98;;;14.90;75.90;;;;;;10041965;28;20108;-65
2020/12/23 15:00:01;;;;;;;1.50;1.08;;;14.80;76.40;;;;;;10043739;28;20024;-67
2020/12/23 15:04:53;;;;;;;2.60;1.50;;;14.80;76.50;;;;;;10043479;28;20084;-65
2020/12/23 15:09:43;;;;;;;1.77;1.00;;;14.80;76.60;;;;;;10041951;28;20099;-67
2020/12/23 15:14:34;;;;;;;2.85;1.33;;;14.80;76.80;;;;;;10036690;28;20442;-66
2020/12/23 15:19:24;;;;;;;0.77;0.75;;;14.80;76.90;;;;;;10042403;28;21746;-65
2020/12/23 15:24:15;;;;;;;0.50;0.40;;;14.90;76.80;;;;;;10039475;28;20041;-65
2020/12/23 15:29:06;;;;;;;0.65;0.65;;;15.20;76.30;;;;;;10036545;28;20596;-64
2020/12/23 15:33:56;;;;;;;1.02;0.60;;;15.20;76.20;;;;;;10035684;28;20496;-65
2020/12/23 15:38:47;;;;;;;1.13;0.75;;;15.20;76.40;;;;;;10044358;28;20391;-65
2020/12/23 15:43:39;;;;;;;0.70;0.50;;;15.20;76.70;;;;;;10038422;28;20126;-63
2020/12/23 15:48:30;;;;;;;1.65;0.82;;;15.20;76.70;;;;;;10033248;28;20412;-64
2020/12/23 15:53:21;;;;;;;1.02;0.80;;;15.20;76.70;;;;;;10041116;28;20030;-64
2020/12/23 15:58:12;;;;;;;3.25;0.88;;;15.10;77.00;;;;;;10034336;28;20032;-63
2020/12/23 16:03:03;;;;;;;2.40;1.08;;;14.90;77.30;;;;;;10034940;28;20038;-64
2020/12/23 16:07:53;;;;;;;2.33;1.70;;;14.80;77.90;;;;;;10035823;28;20091;-64
2020/12/23 16:12:44;;;;;;;4.10;1.80;;;14.70;78.20;;;;;;10039906;28;20494;-67
2020/12/23 16:17:35;;;;;;;3.10;1.85;;;14.60;78.50;;;;;;10039435;28;20088;-64
2020/12/23 16:22:25;;;;;;;3.03;1.85;;;14.60;78.90;;;;;;10034265;28;20037;-64
2020/12/23 16:27:17;;;;;;;1.83;1.05;;;14.50;79.20;;;;;;10034712;28;20503;-66
2020/12/23 16:32:15;;;;;;;2.08;1.20;;;14.50;79.70;;;;;;10037597;28;20096;-67
2020/12/23 16:37:06;;;;;;;2.13;1.30;;;14.40;80.20;;;;;;10036904;28;20641;-65
2020/12/23 16:41:59;;;;;;;3.17;1.67;;;14.30;80.70;;;;;;10042230;28;20167;-64
2020/12/23 16:46:50;;;;;;;2.00;1.17;;;14.20;81.00;;;;;;10049131;28;20121;-65
2020/12/23 16:51:41;;;;;;;2.28;1.00;;;14.10;81.50;;;;;;10044810;28;20466;-64
2020/12/23 16:56:32;;;;;;;2.35;1.40;;;14.00;82.10;;;;;;10040829;28;20046;-65
2020/12/23 17:01:22;;;;;;;2.72;1.05;;;13.90;82.60;;;;;;10045016;28;20521;-65
2020/12/23 17:06:13;;;;;;;2.70;1.30;;;13.90;83.00;;;;;;10045490;28;20460;-65
2020/12/23 17:11:03;;;;;;;3.05;1.85;;;13.80;83.40;;;;;;10043278;28;20600;-66
2020/12/23 17:15:54;;;;;;;2.80;1.88;;;13.70;83.90;;;;;;10047278;28;20036;-66
2020/12/23 17:20:45;;;;;;;2.40;1.67;;;13.80;84.00;;;;;;10042115;28;20046;-65
2020/12/23 17:25:35;;;;;;;4.68;1.90;;;13.80;84.20;;;;;;10045201;28;20411;-66
2020/12/23 17:30:26;;;;;;;2.78;1.75;;;13.70;84.50;;;;;;10044034;28;20032;-65
2020/12/23 17:35:17;;;;;;;2.85;1.50;;;13.80;84.70;;;;;;10044664;28;20041;-65
2020/12/23 17:40:08;;;;;;;2.60;1.90;;;13.70;85.00;;;;;;10042991;28;20120;-64
2020/12/23 17:44:59;;;;;;;2.72;2.38;;;13.80;85.20;;;;;;10045632;28;20068;-65
2020/12/23 17:49:49;;;;;;;2.67;1.75;;;13.70;85.50;;;;;;10043996;28;20057;-62
2020/12/23 17:54:41;;;;;;;4.13;2.67;;;13.70;85.80;;;;;;10046197;28;20565;-62
2020/12/23 17:59:32;;;;;;;4.47;2.50;;;13.60;86.10;;;;;;10043406;28;20025;-63
2020/12/23 18:04:23;;;;;;;3.17;2.30;;;13.60;86.70;;;;;;10044793;28;20519;-66
2020/12/23 18:09:15;;;;;;;3.95;2.00;;;13.60;86.60;;;;;;10042751;28;20033;-65
2020/12/23 18:14:06;;;;;;;11.20;6.45;;;13.50;87.10;;;;;;10041781;28;20466;-64
2020/12/23 18:18:56;;;;;;;5.13;2.45;;;13.50;87.30;;;;;;10042556;28;20049;-64
2020/12/23 18:23:47;;;;;;;4.00;3.15;;;13.60;87.20;;;;;;10039037;28;20053;-63
2020/12/23 18:28:38;;;;;;;3.03;1.80;;;13.60;87.10;;;;;;10043772;28;20029;-67
2020/12/23 18:33:29;;;;;;;3.33;1.73;;;13.60;87.10;;;;;;10043951;28;20041;-66
2020/12/23 18:38:19;;;;;;;3.40;1.33;;;13.60;87.10;;;;;;10044739;28;20569;-66
2020/12/23 18:43:10;;;;;;;2.90;1.38;;;13.70;87.00;;;;;;10039559;28;20450;-66
2020/12/23 18:48:01;;;;;;;2.00;0.80;;;13.70;86.70;;;;;;10038647;28;20033;-66
2020/12/23 18:52:54;;;;;;;1.88;1.10;;;13.80;86.10;;;;;;10041308;28;20029;-66
2020/12/23 18:57:49;;;;;;;0.57;0.50;;;13.90;85.40;;;;;;10041934;28;20561;-65
2020/12/23 19:02:39;;;;;;;0.63;0.50;;;14.00;84.70;;;;;;10042959;28;20029;-66
2020/12/23 19:07:32;;;;;;;1.77;0.75;;;14.00;84.20;;;;;;10041320;28;20033;-65
2020/12/23 19:12:22;;;;;;;1.23;0.80;;;13.90;83.50;;;;;;10040678;28;20164;-66
2020/12/23 19:17:15;;;;;;;3.13;1.13;;;14.00;83.20;;;;;;10036889;28;20511;-64
2020/12/23 19:22:11;;;;;;;4.68;1.45;;;13.90;83.00;;;;;;10042516;28;20052;-65
2020/12/23 19:27:01;;;;;;;2.67;1.33;;;13.90;83.30;;;;;;10042687;28;20068;-65
2020/12/23 19:31:52;;;;;;;1.75;0.80;;;13.90;83.30;;;;;;10041452;28;20078;-64
2020/12/23 19:36:43;;;;;;;2.65;1.35;;;13.80;83.40;;;;;;10040472;28;20985;-62
2020/12/23 19:41:33;;;;;;;3.88;2.08;;;13.80;83.50;;;;;;10041598;28;20052;-65
2020/12/23 19:46:24;;;;;;;5.72;2.20;;;13.70;83.50;;;;;;10041641;28;20025;-64
2020/12/23 19:51:14;;;;;;;3.13;1.00;;;13.70;83.30;;;;;;10041007;28;20026;-66
2020/12/23 19:56:12;;;;;;;2.70;0.98;;;13.70;83.30;;;;;;10038854;28;20029;-66
2020/12/23 20:01:02;;;;;;;13.02;6.05;;;13.70;83.10;;;;;;10040240;28;20131;-66
2020/12/23 20:05:53;;;;;;;16.05;7.60;;;13.70;82.90;;;;;;10033231;28;20322;-67
2020/12/23 20:10:44;;;;;;;8.63;4.97;;;13.80;82.30;;;;;;10038103;28;20376;-65
2020/12/23 20:15:34;;;;;;;7.03;3.50;;;13.80;82.20;;;;;;10035071;28;20025;-66
2020/12/23 20:20:25;;;;;;;2.30;1.73;;;13.80;82.50;;;;;;10035239;28;20470;-67
2020/12/23 20:25:16;;;;;;;3.75;2.17;;;13.90;81.30;;;;;;10032013;28;20037;-66
2020/12/23 20:30:07;;;;;;;3.80;2.63;;;13.90;80.90;;;;;;10036018;28;20495;-65
2020/12/23 20:34:58;;;;;;;2.75;1.50;;;13.90;80.40;;;;;;10038233;28;20033;-65
2020/12/23 20:39:48;;;;;;;2.17;1.00;;;13.90;80.30;;;;;;10035643;28;20738;-66
2020/12/23 20:44:39;;;;;;;2.03;0.95;;;13.70;80.40;;;;;;10034567;28;20029;-66
2020/12/23 20:49:30;;;;;;;1.35;0.70;;;13.70;80.50;;;;;;10038483;28;20041;-66
2020/12/23 20:54:20;;;;;;;1.55;0.80;;;13.60;80.40;;;;;;10040255;28;20053;-65
2020/12/23 20:59:11;;;;;;;1.88;0.85;;;13.60;80.20;;;;;;10035065;28;20598;-65
2020/12/23 21:04:01;;;;;;;1.63;0.70;;;13.60;80.00;;;;;;10040464;28;20385;-66
2020/12/23 21:08:53;;;;;;;0.88;0.70;;;13.50;80.40;;;;;;10034037;28;20036;-66
2020/12/23 21:13:43;;;;;;;1.08;0.85;;;13.50;79.60;;;;;;10039129;28;20423;-65
2020/12/23 21:18:34;;;;;;;2.63;0.82;;;13.50;79.50;;;;;;10037118;28;20380;-66
2020/12/23 21:23:24;;;;;;;2.63;0.70;;;13.50;79.30;;;;;;10044167;28;20534;-66
2020/12/23 21:28:15;;;;;;;2.28;0.60;;;13.40;79.10;;;;;;10043615;28;20038;-66
2020/12/23 21:33:05;;;;;;;0.70;0.60;;;13.40;79.10;;;;;;10046589;28;20036;-65
2020/12/23 21:37:56;;;;;;;0.50;0.40;;;13.40;79.70;;;;;;10045436;28;20087;-66
2020/12/23 21:42:46;;;;;;;1.10;0.50;;;13.40;78.60;;;;;;10044091;28;20529;-66
2020/12/23 21:47:37;;;;;;;1.13;0.75;;;13.40;78.50;;;;;;10045846;28;20411;-65
2020/12/23 21:52:27;;;;;;;0.90;0.70;;;13.40;78.40;;;;;;10041109;28;20553;-65
2020/12/23 21:57:18;;;;;;;1.23;0.70;;;13.40;78.40;;;;;;10041246;28;20029;-65
2020/12/23 22:02:09;;;;;;;1.13;0.75;;;13.40;78.60;;;;;;10045702;28;20041;-65
2020/12/23 22:06:59;;;;;;;2.10;1.02;;;13.30;78.70;;;;;;10045755;28;20082;-65
2020/12/23 22:11:50;;;;;;;1.25;0.70;;;13.40;78.80;;;;;;10046186;28;20033;-66
2020/12/23 22:16:41;;;;;;;2.92;1.30;;;13.30;79.00;;;;;;10042202;28;20048;-65
2020/12/23 22:21:32;;;;;;;1.30;0.80;;;13.30;79.30;;;;;;10046881;28;20043;-65
2020/12/23 22:26:23;;;;;;;1.35;0.88;;;13.20;79.60;;;;;;10040904;28;20036;-66
2020/12/23 22:31:16;;;;;;;1.13;0.68;;;13.10;80.10;;;;;;10039624;28;20037;-65
2020/12/23 22:36:07;;;;;;;1.17;0.70;;;13.10;80.10;;;;;;10043923;28;20029;-65
2020/12/23 22:40:57;;;;;;;1.05;0.70;;;13.10;80.80;;;;;;10043395;28;20096;-65
2020/12/23 22:45:48;;;;;;;1.27;0.75;;;13.10;80.30;;;;;;10042571;28;20457;-65
2020/12/23 22:50:39;;;;;;;1.17;0.60;;;13.20;80.60;;;;;;10044424;28;20029;-66
2020/12/23 22:55:29;;;;;;;0.90;0.63;;;13.10;80.90;;;;;;10036005;28;20028;-65
2020/12/23 23:00:20;;;;;;;1.10;0.60;;;13.00;80.80;;;;;;10042144;28;20569;-66
2020/12/23 23:05:11;;;;;;;0.82;0.55;;;13.10;79.80;;;;;;10044746;28;20479;-64
2020/12/23 23:10:09;;;;;;;1.75;0.55;;;13.20;79.00;;;;;;10039207;28;20029;-66
2020/12/23 23:15:00;;;;;;;1.55;0.50;;;13.30;77.70;;;;;;10044296;28;20037;-66
2020/12/23 23:19:50;;;;;;;0.85;0.40;;;13.30;77.10;;;;;;10041939;28;20065;-66
2020/12/23 23:24:41;;;;;;;0.60;0.40;;;13.40;76.70;;;;;;10041410;28;20037;-66
2020/12/23 23:29:32;;;;;;;3.17;0.57;;;13.30;76.50;;;;;;10041889;28;20088;-66
2020/12/23 23:34:23;;;;;;;0.63;0.40;;;13.30;76.50;;;;;;10041214;28;20080;-66
2020/12/23 23:39:13;;;;;;;2.10;0.47;;;13.20;76.50;;;;;;10045494;28;20030;-66
2020/12/23 23:44:04;;;;;;;0.70;0.60;;;13.10;76.90;;;;;;10041297;28;20025;-65
2020/12/23 23:48:55;;;;;;;0.98;0.47;;;12.80;77.30;;;;;;10039948;28;20630;-66
2020/12/23 23:53:46;;;;;;;1.20;0.50;;;12.70;77.70;;;;;;10041574;28;20612;-66
2020/12/23 23:58:36;;;;;;;0.90;0.47;;;12.60;78.70;;;;;;10040538;28;20022;-67
